Time;durP1;ratioP1;P1;durP2;ratioP2;P2;SDS_P1;SDS_P2;PMS_P1;PMS_P2;Temp;Humidity;BMP_temperature;BMP_pressure;BME280_temperature;BME280_humidity;BME280_pressure;Samples;Min_cycle;Max_cycle;Signal;HPM_P1;HPM_P2
2022/04/17 00:00:15;;;;;;;6.20;3.50;;;;;;;4.50;73.20;102272.97;5065639;28;20025;-67
2022/04/17 00:02:41;;;;;;;9.18;3.92;;;;;;;4.51;72.88;102270.47;5065959;28;20089;-68
2022/04/17 00:05:07;;;;;;;5.88;3.42;;;;;;;4.51;73.03;102264.44;5065806;28;20032;-68
2022/04/17 00:07:33;;;;;;;9.38;3.47;;;;;;;4.46;73.22;102264.22;5065519;28;20036;-68
2022/04/17 00:10:00;;;;;;;8.60;3.70;;;;;;;4.50;73.14;102267.84;5065906;28;20025;-68
2022/04/17 00:12:26;;;;;;;8.23;2.97;;;;;;;4.49;73.01;102268.66;5065244;28;20520;-68
2022/04/17 00:14:52;;;;;;;8.70;3.92;;;;;;;4.49;73.06;102269.50;5065566;28;20504;-68
2022/04/17 00:17:18;;;;;;;7.10;3.08;;;;;;;4.47;73.04;102269.44;5065312;28;20029;-67
2022/04/17 00:19:44;;;;;;;9.52;3.97;;;;;;;4.47;73.06;102258.28;5063895;28;20056;-68
2022/04/17 00:22:09;;;;;;;7.25;4.15;;;;;;;4.46;72.99;102266.81;5065374;28;20036;-68
2022/04/17 00:24:35;;;;;;;7.38;3.50;;;;;;;4.43;73.33;102252.13;5065028;28;20025;-67
2022/04/17 00:27:03;;;;;;;5.38;3.03;;;;;;;4.42;73.26;102263.22;5065135;28;20029;-66
2022/04/17 00:29:28;;;;;;;8.55;4.07;;;;;;;4.41;73.32;102251.16;5065169;28;20023;-68
2022/04/17 00:31:56;;;;;;;6.65;3.30;;;;;;;4.45;73.40;102262.47;5064875;28;20040;-66
2022/04/17 00:34:22;;;;;;;8.02;3.28;;;;;;;4.45;73.41;102250.50;5065161;28;20076;-67
2022/04/17 00:36:48;;;;;;;6.90;3.50;;;;;;;4.48;73.35;102249.75;5064966;28;20028;-67
2022/04/17 00:39:13;;;;;;;6.88;2.97;;;;;;;4.50;73.00;102249.81;5064882;28;20032;-67
2022/04/17 00:41:38;;;;;;;9.13;4.30;;;;;;;4.49;73.12;102248.06;5064756;28;20404;-67
2022/04/17 00:44:11;;;;;;;9.82;3.33;;;;;;;4.46;73.03;102241.97;5064836;28;20063;-69
2022/04/17 00:46:37;;;;;;;9.10;3.92;;;;;;;4.43;73.16;102243.50;5064975;28;20025;-68
2022/04/17 00:49:02;;;;;;;8.32;3.67;;;;;;;4.42;73.18;102234.94;5064666;28;20017;-67
2022/04/17 00:51:28;;;;;;;7.80;3.88;;;;;;;4.37;73.31;102233.84;5046973;28;20052;-68
2022/04/17 00:53:54;;;;;;;6.45;3.58;;;;;;;4.34;73.49;102225.97;5064725;28;20044;-67
2022/04/17 00:56:22;;;;;;;6.97;3.85;;;;;;;4.32;73.44;102230.16;5046447;28;20060;-68
2022/04/17 00:58:47;;;;;;;10.15;3.38;;;;;;;4.34;73.47;102234.53;5064359;28;20021;-67
2022/04/17 01:01:13;;;;;;;7.20;3.63;;;;;;;4.33;73.57;102230.22;5064632;28;20039;-68
2022/04/17 01:03:38;;;;;;;5.72;3.42;;;;;;;4.31;73.56;102226.69;5046627;28;20021;-68
2022/04/17 01:06:04;;;;;;;8.05;3.67;;;;;;;4.33;73.67;102227.66;5064421;28;20028;-67
2022/04/17 01:08:30;;;;;;;7.88;3.50;;;;;;;4.30;73.64;102221.47;5064358;28;20052;-67
2022/04/17 01:10:58;;;;;;;6.90;3.72;;;;;;;4.34;73.82;102215.69;5064468;28;20032;-69
2022/04/17 01:13:24;;;;;;;7.20;3.60;;;;;;;4.32;73.65;102218.19;5063987;28;20029;-67
2022/04/17 01:15:50;;;;;;;6.18;3.20;;;;;;;4.28;73.80;102215.41;5064245;28;20120;-67
2022/04/17 01:18:15;;;;;;;9.95;3.53;;;;;;;4.32;74.04;102227.59;5064342;28;20025;-67
2022/04/17 01:20:41;;;;;;;9.60;4.68;;;;;;;4.31;74.21;102225.84;5064095;28;20025;-67
2022/04/17 01:28:34;;;;;;;8.10;4.13;;;;;;;4.28;74.90;102223.13;5063523;28;20086;-68
2022/04/17 01:30:59;;;;;;;8.27;3.67;;;;;;;4.29;74.83;102220.63;5064091;28;20024;-68
2022/04/17 01:33:24;;;;;;;9.32;4.22;;;;;;;4.32;75.01;102219.88;5045688;28;20076;-68
2022/04/17 01:35:49;;;;;;;8.95;4.60;;;;;;;4.33;74.86;102214.78;5063735;28;20519;-68
2022/04/17 01:38:15;;;;;;;7.63;4.20;;;;;;;4.32;74.92;102213.03;5063790;28;20032;-67
2022/04/17 01:40:41;;;;;;;8.27;4.00;;;;;;;4.29;75.02;102218.03;5063643;28;20053;-67
2022/04/17 01:43:10;;;;;;;6.30;4.25;;;;;;;4.34;74.78;102225.97;5063602;28;20032;-69
2022/04/17 01:45:36;;;;;;;8.65;4.05;;;;;;;4.34;74.73;102229.41;5063849;28;20087;-68
2022/04/17 01:48:02;;;;;;;8.68;4.22;;;;;;;4.36;74.41;102228.63;5063795;28;20063;-67
2022/04/17 01:50:28;;;;;;;10.85;4.15;;;;;;;4.34;74.55;102229.41;5063625;28;20021;-66
2022/04/17 01:52:54;;;;;;;15.65;4.03;;;;;;;4.32;74.71;102223.34;5062954;28;20039;-67
2022/04/17 01:55:19;;;;;;;10.90;4.40;;;;;;;4.29;74.93;102214.59;5063454;28;20080;-68
2022/04/17 01:57:45;;;;;;;10.98;4.78;;;;;;;4.30;75.14;102206.03;5063385;28;20471;-67
2022/04/17 02:00:11;;;;;;;9.43;4.40;;;;;;;4.29;75.36;102196.59;5063372;28;20032;-67
2022/04/17 02:02:37;;;;;;;6.63;3.55;;;;;;;4.29;75.26;102197.47;5063521;28;20025;-68
2022/04/17 02:05:02;;;;;;;6.95;4.00;;;;;;;4.32;75.29;102205.34;5063295;28;20175;-67
2022/04/17 02:07:28;;;;;;;10.40;4.07;;;;;;;4.32;75.10;102205.34;5063201;28;20025;-67
2022/04/17 02:09:53;;;;;;;10.30;4.55;;;;;;;4.33;75.02;102203.63;5063182;28;20008;-68
2022/04/17 02:12:18;;;;;;;8.90;4.22;;;;;;;4.31;75.19;102207.84;5062900;28;20400;-68
2022/04/17 02:14:44;;;;;;;9.73;4.75;;;;;;;4.28;75.25;102205.97;5063287;28;20033;-68
2022/04/17 02:17:09;;;;;;;7.10;4.43;;;;;;;4.26;75.16;102207.63;5062790;28;20027;-67
2022/04/17 02:19:36;;;;;;;8.60;4.90;;;;;;;4.28;74.88;102210.25;5062944;28;20466;-67
2022/04/17 02:22:01;;;;;;;7.72;4.72;;;;;;;4.26;74.76;102220.47;5063180;28;20036;-68
2022/04/17 02:24:27;;;;;;;12.75;4.60;;;;;;;4.24;74.85;102208.34;5063140;28;20457;-68
2022/04/17 02:26:52;;;;;;;8.90;4.85;;;;;;;4.21;75.13;102209.09;5063041;28;20016;-67
2022/04/17 02:29:17;;;;;;;8.23;4.93;;;;;;;4.18;75.43;102198.66;5063031;28;20029;-68
2022/04/17 02:31:43;;;;;;;7.57;4.65;;;;;;;4.15;75.56;102199.41;5062618;28;20405;-67
2022/04/17 02:34:09;;;;;;;10.40;4.88;;;;;;;4.09;75.73;102204.22;5044739;28;20100;-68
2022/04/17 02:36:34;;;;;;;11.93;4.97;;;;;;;4.12;75.72;102203.50;5062868;28;20021;-67
2022/04/17 02:39:00;;;;;;;9.38;5.07;;;;;;;4.14;75.61;102213.03;5062562;28;20071;-67
2022/04/17 02:41:25;;;;;;;9.25;5.10;;;;;;;4.12;75.74;102212.09;5062829;28;20021;-68
2022/04/17 02:43:51;;;;;;;11.75;5.68;;;;;;;4.12;75.52;102219.78;5062721;28;20028;-67
2022/04/17 02:49:01;;;;;;;11.05;6.32;;;;;;;4.13;74.82;102241.25;5062831;28;20028;-68
2022/04/17 02:51:26;;;;;;;11.63;7.30;;;;;;;4.07;74.55;102226.44;5062687;28;20017;-68
2022/04/17 02:53:52;;;;;;;16.45;7.28;;;;;;;4.12;74.26;102242.94;5062624;28;20033;-68
2022/04/17 02:56:17;;;;;;;11.32;6.88;;;;;;;4.05;74.60;102225.47;5062723;28;20021;-68
2022/04/17 02:58:42;;;;;;;16.02;6.93;;;;;;;3.96;75.47;102208.78;5044502;28;20021;-67
2022/04/17 03:06:35;;;;;;;13.70;6.25;;;;;;;3.75;76.77;102193.22;5065848;28;20047;-67
2022/04/17 03:09:01;;;;;;;17.60;6.93;;;;;;;3.73;77.37;102189.69;5066270;28;20017;-67
2022/04/17 03:11:27;;;;;;;13.60;6.95;;;;;;;3.73;77.44;102192.25;5066630;28;20013;-69
2022/04/17 03:13:53;;;;;;;12.30;7.20;;;;;;;3.75;77.26;102206.06;5066371;28;20024;-68
2022/04/17 03:16:18;;;;;;;14.93;8.43;;;;;;;3.74;76.99;102206.84;5066818;28;20024;-67
2022/04/17 03:18:43;;;;;;;16.15;7.35;;;;;;;3.72;77.18;102203.34;5048186;28;20057;-68
2022/04/17 03:21:08;;;;;;;15.25;7.97;;;;;;;3.71;77.43;102199.00;5066194;28;20031;-68
2022/04/17 03:23:34;;;;;;;21.27;8.50;;;;;;;3.69;77.94;102195.50;5066423;28;20245;-67
2022/04/17 03:25:59;;;;;;;14.93;8.57;;;;;;;3.69;77.47;102196.38;5066374;28;20029;-67
2022/04/17 03:28:25;;;;;;;19.17;8.55;;;;;;;3.67;77.59;102202.25;5066058;28;20029;-67
2022/04/17 03:30:50;;;;;;;16.05;9.27;;;;;;;3.64;77.76;102210.69;5066005;28;20070;-69
2022/04/17 03:33:16;;;;;;;20.05;8.43;;;;;;;3.60;78.23;102206.19;5066034;28;20053;-67
2022/04/17 03:35:41;;;;;;;22.25;8.65;;;;;;;3.61;78.78;102214.78;5047948;28;20029;-68
2022/04/17 03:38:09;;;;;;;20.35;9.02;;;;;;;3.60;78.91;102219.03;5065991;28;20025;-67
2022/04/17 03:40:34;;;;;;;17.65;8.82;;;;;;;3.59;78.64;102218.13;5066011;28;20029;-67
2022/04/17 03:43:00;;;;;;;17.98;8.40;;;;;;;3.57;78.78;102209.50;5065800;28;20472;-67
2022/04/17 03:45:25;;;;;;;12.23;8.25;;;;;;;3.64;78.74;102213.25;5065985;28;20021;-67
2022/04/17 03:47:50;;;;;;;15.40;8.00;;;;;;;3.60;78.95;102203.63;5065879;28;20021;-66
2022/04/17 03:50:16;;;;;;;15.05;8.10;;;;;;;3.65;78.84;102202.16;5066140;28;20017;-68
2022/04/17 03:52:47;;;;;;;17.75;8.93;;;;;;;3.71;78.83;102191.31;5065809;28;20033;-67
2022/04/17 03:55:13;;;;;;;14.27;8.63;;;;;;;3.71;78.81;102194.75;5066006;28;20024;-67
2022/04/17 03:57:39;;;;;;;17.58;7.97;;;;;;;3.68;78.95;102184.34;5065688;28;20017;-67
2022/04/17 04:00:07;;;;;;;16.92;8.35;;;;;;;3.57;78.96;102163.28;5066111;28;20021;-68
2022/04/17 04:02:33;;;;;;;18.63;8.95;;;;;;;3.69;79.36;102190.38;5065788;28;20048;-68
2022/04/17 04:04:58;;;;;;;18.45;9.18;;;;;;;3.69;79.77;102192.94;5065623;28;20017;-68
2022/04/17 04:07:24;;;;;;;16.33;8.52;;;;;;;3.66;80.15;102182.50;5065443;28;20016;-68
2022/04/17 04:09:51;;;;;;;19.50;10.35;;;;;;;3.68;80.63;102180.88;5065497;28;20021;-67
2022/04/17 04:12:17;;;;;;;19.40;11.07;;;;;;;3.77;80.73;102185.59;5065452;28;20024;-68
2022/04/17 04:14:43;;;;;;;23.08;10.68;;;;;;;3.76;81.02;102188.94;5065556;28;20072;-68
2022/04/17 04:17:09;;;;;;;23.90;10.50;;;;;;;3.77;81.36;102178.75;5064705;28;20040;-68
2022/04/17 04:19:34;;;;;;;21.52;11.38;;;;;;;3.79;81.57;102181.41;5065357;28;20029;-68
2022/04/17 04:22:00;;;;;;;27.35;12.70;;;;;;;3.81;81.95;102172.09;5065617;28;20037;-67
2022/04/17 04:24:26;;;;;;;27.35;12.80;;;;;;;3.81;82.01;102165.25;5065174;28;20035;-67
2022/04/17 04:29:40;;;;;;;26.10;13.05;;;;;;;3.90;82.10;102174.22;5002961;28;20046;-69
2022/04/17 04:32:06;;;;;;;23.05;12.23;;;;;;;3.99;82.53;102177.22;5002916;28;20050;-69
2022/04/17 04:34:31;;;;;;;24.00;11.70;;;;;;;4.14;82.89;102176.19;5002924;28;20038;-68
2022/04/17 04:36:57;;;;;;;19.17;10.32;;;;;;;4.45;83.46;102178.50;5003005;28;20033;-68
2022/04/17 04:39:22;;;;;;;17.52;9.50;;;;;;;4.81;84.28;102163.72;5002881;28;20082;-69
2022/04/17 04:41:47;;;;;;;16.42;9.43;;;;;;;5.29;84.38;102159.75;5002723;28;20042;-69
2022/04/17 04:44:13;;;;;;;19.75;10.90;;;;;;;5.68;83.70;102153.59;5002633;28;20095;-68
2022/04/17 04:46:38;;;;;;;16.27;9.07;;;;;;;6.25;83.46;102165.28;5002916;28;20052;-68
2022/04/17 04:51:49;;;;;;;15.57;8.98;;;;;;;7.09;78.77;102158.78;5003110;28;20065;-69
2022/04/17 04:54:14;;;;;;;12.95;7.90;;;;;;;7.55;78.39;102147.41;5002494;28;20042;-69
2022/04/17 04:56:40;;;;;;;15.30;8.60;;;;;;;8.12;76.75;102151.69;5002404;28;20110;-68
2022/04/17 04:59:05;;;;;;;14.25;7.65;;;;;;;8.66;76.52;102152.38;5002092;28;20026;-68
2022/04/17 05:01:31;;;;;;;11.35;7.07;;;;;;;9.17;72.82;102153.75;4986112;28;20113;-68
2022/04/17 05:03:56;;;;;;;13.18;7.40;;;;;;;9.65;71.99;102159.22;5002329;28;20027;-68
2022/04/17 05:06:21;;;;;;;10.95;6.63;;;;;;;10.23;70.25;102147.53;5017802;28;20127;-69
2022/04/17 05:08:47;;;;;;;12.63;7.30;;;;;;;10.77;69.56;102139.09;5044405;28;20049;-69
2022/04/17 05:11:12;;;;;;;10.43;6.43;;;;;;;11.46;66.61;102142.84;5044491;28;20056;-69
2022/04/17 05:13:38;;;;;;;10.40;6.25;;;;;;;11.96;64.13;102151.41;5044237;28;20021;-69
2022/04/17 05:16:04;;;;;;;9.40;5.70;;;;;;;12.31;63.57;102138.00;5044315;28;20025;-68
2022/04/17 05:18:30;;;;;;;11.30;6.40;;;;;;;12.77;60.57;102145.47;5043958;28;20029;-68
2022/04/17 05:20:56;;;;;;;8.27;5.50;;;;;;;13.05;60.14;102144.84;5044199;28;20052;-68
2022/04/17 05:23:29;;;;;;;10.45;6.00;;;;;;;13.36;58.28;102139.03;5044264;28;20018;-68
2022/04/17 05:26:00;;;;;;;10.13;6.05;;;;;;;13.58;55.68;102141.81;5044257;28;20024;-68
2022/04/17 05:28:28;;;;;;;9.48;5.43;;;;;;;13.75;54.23;102141.94;5041854;28;20018;-68
2022/04/17 05:30:53;;;;;;;11.02;5.45;;;;;;;13.87;53.31;102147.22;5044024;28;20036;-69
2022/04/17 05:33:20;;;;;;;13.70;6.85;;;;;;;14.02;51.97;102140.34;5062531;28;20045;-68
2022/04/17 05:35:46;;;;;;;8.43;5.30;;;;;;;14.04;51.57;102127.31;5045637;28;20050;-68
2022/04/17 05:38:11;;;;;;;9.50;5.95;;;;;;;14.46;51.15;102150.97;5045648;28;20469;-69
2022/04/17 05:40:47;;;;;;;8.88;6.45;;;;;;;14.71;50.54;102145.81;5045665;28;20032;-67
2022/04/17 05:43:13;;;;;;;10.80;6.13;;;;;;;14.95;48.50;102146.75;5063387;28;20031;-67
2022/04/17 05:45:39;;;;;;;10.82;5.55;;;;;;;15.21;48.39;102152.00;5063625;28;20024;-68
2022/04/17 05:48:06;;;;;;;11.05;5.95;;;;;;;15.39;46.53;102138.91;5063578;28;20083;-68
2022/04/17 05:50:31;;;;;;;8.40;5.25;;;;;;;15.61;46.02;102139.75;5063577;28;20020;-68
2022/04/17 05:52:57;;;;;;;7.85;5.10;;;;;;;15.86;44.62;102145.81;5063397;28;20088;-68
2022/04/17 05:55:23;;;;;;;11.93;4.93;;;;;;;15.97;44.28;102140.56;5063381;28;20033;-68
2022/04/17 05:57:48;;;;;;;7.15;4.30;;;;;;;16.04;44.30;102144.03;5063288;28;20082;-68
2022/04/17 06:00:16;;;;;;;8.90;4.55;;;;;;;16.31;42.99;102136.09;5063298;28;20120;-67
2022/04/17 06:02:46;;;;;;;7.07;4.32;;;;;;;16.38;41.84;102144.78;5063162;28;20092;-67
2022/04/17 06:05:13;;;;;;;5.55;4.10;;;;;;;16.56;41.60;102135.94;5063451;28;20032;-68
2022/04/17 06:07:39;;;;;;;7.25;4.53;;;;;;;16.96;40.57;102137.44;5063273;28;20040;-67
2022/04/17 06:10:07;;;;;;;4.82;3.80;;;;;;;16.98;38.45;102143.56;5063393;28;20029;-67
2022/04/17 06:12:33;;;;;;;5.97;4.32;;;;;;;16.90;38.15;102146.22;5063287;28;20025;-68
2022/04/17 06:14:59;;;;;;;4.75;3.63;;;;;;;16.91;38.55;102141.84;5063566;28;20368;-68
2022/04/17 06:17:24;;;;;;;6.57;3.22;;;;;;;17.24;37.86;102139.84;5062862;28;20084;-68
2022/04/17 06:19:50;;;;;;;6.20;3.47;;;;;;;17.48;37.29;102143.16;5063207;28;20127;-68
2022/04/17 06:22:17;;;;;;;4.15;2.92;;;;;;;17.63;35.94;102139.50;5063138;28;20025;-67
2022/04/17 06:24:43;;;;;;;5.45;3.10;;;;;;;17.69;36.28;102136.81;5062990;28;20025;-67
2022/04/17 06:27:08;;;;;;;4.72;3.40;;;;;;;17.62;35.08;102129.88;5062886;28;20036;-68
2022/04/17 06:29:35;;;;;;;4.57;3.20;;;;;;;17.58;35.65;102139.56;5062998;28;20028;-68
2022/04/17 06:32:00;;;;;;;3.90;2.90;;;;;;;17.65;35.35;102136.88;5062816;28;20049;-69
2022/04/17 06:34:25;;;;;;;4.53;2.75;;;;;;;17.78;34.32;102135.84;5063367;28;20347;-69
2022/04/17 06:36:51;;;;;;;5.32;3.10;;;;;;;17.78;34.42;102133.22;5063252;28;20032;-68
2022/04/17 06:39:16;;;;;;;4.97;3.03;;;;;;;17.87;34.95;102120.84;5062662;28;20025;-68
2022/04/17 06:41:41;;;;;;;8.15;4.22;;;;;;;18.21;34.12;102123.13;5062869;28;20025;-68
2022/04/17 06:44:07;;;;;;;5.30;3.50;;;;;;;18.37;34.28;102122.91;5044505;28;20041;-69
2022/04/17 06:46:32;;;;;;;5.45;3.38;;;;;;;18.59;33.05;102131.34;5062871;28;20032;-69
2022/04/17 06:48:58;;;;;;;6.30;3.35;;;;;;;18.50;32.42;102131.50;5044637;28;20078;-69
2022/04/17 06:51:25;;;;;;;5.22;3.50;;;;;;;18.38;31.53;102129.88;5062812;28;20043;-68
2022/04/17 06:53:51;;;;;;;6.07;3.20;;;;;;;18.46;31.26;102122.78;5062562;28;20440;-68
2022/04/17 06:56:18;;;;;;;5.07;2.72;;;;;;;18.74;31.10;102132.88;5062908;28;20063;-68
2022/04/17 06:58:49;;;;;;;5.00;2.90;;;;;;;19.12;30.54;102132.34;5062428;28;20047;-68
2022/04/17 07:01:15;;;;;;;3.73;2.40;;;;;;;19.40;28.60;102130.09;5062702;28;20036;-68
2022/04/17 07:03:41;;;;;;;4.13;1.88;;;;;;;19.55;25.79;102126.28;5062300;28;20266;-68
2022/04/17 07:06:06;;;;;;;3.03;2.05;;;;;;;19.52;25.99;102126.34;5062635;28;20067;-68
2022/04/17 07:08:32;;;;;;;3.70;2.08;;;;;;;19.61;26.06;102124.44;5062403;28;20040;-68
2022/04/17 07:10:57;;;;;;;3.53;2.13;;;;;;;19.81;25.48;102127.53;5062611;28;20447;-68
2022/04/17 07:13:23;;;;;;;3.75;2.13;;;;;;;19.90;25.55;102130.91;5062176;28;20052;-70
2022/04/17 07:15:49;;;;;;;3.63;2.22;;;;;;;19.75;24.98;102124.16;5062703;28;20029;-69
2022/04/17 07:18:14;;;;;;;6.07;2.35;;;;;;;19.86;25.20;102130.09;5062334;28;20025;-67
2022/04/17 07:20:40;;;;;;;4.13;1.92;;;;;;;19.84;24.26;102120.47;5062571;28;20025;-68
2022/04/17 07:23:06;;;;;;;4.93;2.38;;;;;;;19.44;24.38;102130.91;5062482;28;20036;-69
2022/04/17 07:25:32;;;;;;;6.28;2.38;;;;;;;18.98;24.16;102128.13;5062353;28;20021;-68
2022/04/17 07:27:58;;;;;;;4.13;2.05;;;;;;;18.54;24.45;102128.78;5062140;28;20029;-67
2022/04/17 07:30:30;;;;;;;3.45;1.85;;;;;;;18.31;24.37;102131.72;5062296;28;20031;-68
2022/04/17 07:32:57;;;;;;;5.60;3.17;;;;;;;18.12;25.17;102124.09;5062087;28;20484;-75
2022/04/17 07:35:24;;;;;;;6.57;2.88;;;;;;;17.99;26.16;102133.84;5062493;28;20029;-73
2022/04/17 07:37:51;;;;;;;5.55;2.95;;;;;;;17.85;26.42;102139.28;5062330;28;20025;-73
2022/04/17 07:40:19;;;;;;;9.90;2.83;;;;;;;17.78;26.82;102129.72;5062347;28;20033;-73
2022/04/17 07:42:45;;;;;;;7.35;3.38;;;;;;;18.14;26.48;102131.94;5062103;28;20044;-73
2022/04/17 07:45:17;;;;;;;7.05;3.53;;;;;;;18.22;25.90;102130.09;5062313;28;20061;-73
2022/04/17 07:47:44;;;;;;;5.65;3.65;;;;;;;18.15;25.46;102136.31;5061040;28;20033;-73
2022/04/17 07:50:12;;;;;;;5.28;2.85;;;;;;;17.68;26.61;102106.16;5044284;28;20051;-71
2022/04/17 07:52:39;;;;;;;5.10;3.40;;;;;;;17.81;26.70;102135.78;5064987;28;20731;-73
2022/04/17 07:55:06;;;;;;;6.88;3.83;;;;;;;18.03;26.13;102132.94;5064387;28;20024;-73
2022/04/17 08:00:19;;;;;;;6.07;3.50;;;;;;;18.23;26.32;102142.34;5065885;28;20028;-74
2022/04/17 08:02:50;;;;;;;4.70;3.33;;;;;;;18.52;25.96;102137.56;5065664;28;20027;-78
2022/04/17 08:05:16;;;;;;;6.00;3.42;;;;;;;18.82;26.37;102138.91;5047603;28;20085;-74
2022/04/17 08:07:42;;;;;;;5.57;3.30;;;;;;;19.19;25.66;102131.31;5065640;28;20017;-76
2022/04/17 08:10:07;;;;;;;7.40;3.42;;;;;;;19.51;25.32;102132.50;5065562;28;20529;-72
2022/04/17 08:12:33;;;;;;;4.93;3.40;;;;;;;19.81;25.40;102131.94;5065186;28;20025;-69
2022/04/17 08:14:58;;;;;;;6.88;3.58;;;;;;;20.29;24.39;102132.75;5047619;28;20128;-70
2022/04/17 08:17:23;;;;;;;8.00;4.72;;;;;;;20.40;23.33;102129.91;5065340;28;20123;-69
2022/04/17 08:19:49;;;;;;;9.23;4.65;;;;;;;20.30;23.83;102135.34;5065045;28;20037;-69
2022/04/17 08:22:14;;;;;;;7.80;4.20;;;;;;;20.29;23.35;102138.91;5065539;28;20051;-70
2022/04/17 08:24:39;;;;;;;7.82;4.35;;;;;;;20.31;23.22;102141.50;5065521;28;20473;-69
2022/04/17 08:27:05;;;;;;;6.93;4.25;;;;;;;20.54;23.20;102137.50;5065315;28;20036;-69
2022/04/17 08:29:32;;;;;;;8.15;3.83;;;;;;;20.55;23.17;102118.97;5064948;28;20025;-69
2022/04/17 08:31:57;;;;;;;7.57;3.63;;;;;;;20.74;23.73;102137.00;5046627;28;20049;-69
2022/04/17 08:34:23;;;;;;;6.60;4.07;;;;;;;20.85;22.52;102143.78;5065359;28;20472;-70
2022/04/17 08:36:48;;;;;;;8.43;4.93;;;;;;;20.55;22.23;102128.66;5065136;28;20021;-70
2022/04/17 08:39:14;;;;;;;9.52;4.18;;;;;;;20.49;23.30;102131.44;5064852;28;20017;-72
2022/04/17 08:41:42;;;;;;;10.43;5.72;;;;;;;20.58;22.98;102131.22;5065009;28;20508;-71
2022/04/17 08:44:08;;;;;;;9.32;4.35;;;;;;;20.82;22.74;102131.53;5064701;28;20036;-69
2022/04/17 08:46:34;;;;;;;7.25;4.40;;;;;;;20.69;22.79;102130.97;5065070;28;20025;-70
2022/04/17 08:49:01;;;;;;;10.90;4.85;;;;;;;21.00;22.04;102125.00;5064623;28;20084;-70
2022/04/17 08:51:28;;;;;;;8.65;4.72;;;;;;;20.99;21.99;102125.88;5064746;28;20036;-69
2022/04/17 08:53:56;;;;;;;9.23;5.47;;;;;;;20.76;21.86;102124.66;5046612;28;20017;-70
2022/04/17 08:56:21;;;;;;;9.10;4.82;;;;;;;20.55;22.51;102118.97;5046941;28;20040;-70
2022/04/17 08:58:46;;;;;;;8.32;4.80;;;;;;;20.78;22.15;102122.81;5064366;28;20021;-72
2022/04/17 09:01:17;;;;;;;9.27;4.65;;;;;;;21.07;22.36;102117.75;5064632;28;20122;-71
2022/04/17 09:03:46;;;;;;;13.00;4.88;;;;;;;21.05;21.89;102124.88;5063472;28;20047;-69
2022/04/17 09:06:11;;;;;;;10.95;4.28;;;;;;;20.93;21.30;102118.13;5064525;28;20029;-65
2022/04/17 09:09:04;;;;;;;7.93;4.03;;;;;;;20.49;22.34;102112.97;5064304;28;20250;-67
2022/04/17 09:11:31;;;;;;;9.18;4.00;;;;;;;20.54;22.70;102114.59;5064343;28;20032;-65
2022/04/17 09:13:59;;;;;;;7.30;4.05;;;;;;;20.74;22.11;102113.25;5064136;28;20037;-67
2022/04/17 09:16:28;;;;;;;7.65;4.22;;;;;;;20.80;21.87;102107.84;5064309;28;20072;-67
2022/04/17 09:18:54;;;;;;;10.85;3.78;;;;;;;20.64;22.13;102109.97;5064675;28;20025;-66
2022/04/17 09:21:34;;;;;;;8.15;3.83;;;;;;;20.36;22.06;102110.63;5063947;28;20441;-63
2022/04/17 09:24:21;;;;;;;8.90;3.45;;;;;;;20.43;21.97;102103.44;5064110;28;20028;-67
2022/04/17 09:26:53;;;;;;;6.53;2.90;;;;;;;20.62;22.38;102100.38;5063817;28;20024;-66
2022/04/17 09:29:39;;;;;;;6.53;3.80;;;;;;;21.22;22.70;102097.16;5063827;28;20031;-63
2022/04/17 09:32:18;;;;;;;8.10;3.80;;;;;;;21.69;21.93;102101.19;5063168;28;20053;-66
2022/04/17 09:34:52;;;;;;;8.10;4.53;;;;;;;21.91;20.73;102101.44;5063889;28;20029;-67
2022/04/17 09:37:18;;;;;;;7.85;3.47;;;;;;;22.05;21.08;102101.03;5063698;28;20021;-67
2022/04/17 09:39:45;;;;;;;7.78;3.88;;;;;;;22.56;20.62;102095.09;5062120;28;20499;-66
2022/04/17 09:42:22;;;;;;;5.85;3.50;;;;;;;22.43;20.38;102078.75;5063897;28;20035;-68
2022/04/17 09:44:50;;;;;;;7.18;4.20;;;;;;;22.59;20.62;102092.34;5045976;28;20028;-67
2022/04/17 09:47:22;;;;;;;6.68;3.78;;;;;;;22.71;20.57;102094.63;5063598;28;20389;-66
2022/04/17 09:49:54;;;;;;;7.40;4.00;;;;;;;22.98;20.67;102084.00;5063188;28;20020;-67
2022/04/17 09:52:20;;;;;;;;;;;;;;;22.88;20.44;102079.94;5064036;28;20076;-67
2022/04/17 09:54:48;;;;;;;8.07;3.78;;;;;;;23.28;20.39;102081.22;5063573;28;19909;-67
2022/04/17 09:57:36;;;;;;;6.70;3.78;;;;;;;23.84;19.37;102082.75;5045420;28;20025;-74
2022/04/17 10:00:20;;;;;;;8.02;3.80;;;;;;;23.96;18.61;102076.97;5045709;28;20029;-74
2022/04/17 10:02:46;;;;;;;7.78;4.72;;;;;;;23.67;19.19;102071.03;5045528;28;20064;-73
2022/04/17 10:05:20;;;;;;;6.05;3.38;;;;;;;23.70;19.25;102064.72;5045459;28;20084;-73
2022/04/17 10:07:48;;;;;;;7.70;3.63;;;;;;;23.48;18.68;102058.44;5063410;28;20105;-73
2022/04/17 10:10:15;;;;;;;6.13;3.63;;;;;;;23.30;18.96;102057.31;5063351;28;20029;-73
2022/04/17 10:12:43;;;;;;;5.63;3.85;;;;;;;23.13;19.10;102065.88;5063472;28;20035;-74
2022/04/17 10:15:11;;;;;;;6.93;3.60;;;;;;;22.98;19.32;102060.19;5063161;28;20021;-73
2022/04/17 10:17:44;;;;;;;7.00;3.60;;;;;;;23.18;18.99;102060.41;5062927;28;20029;-72
2022/04/17 10:20:12;;;;;;;7.53;3.65;;;;;;;23.19;18.85;102054.16;5061806;28;20361;-69
2022/04/17 10:22:39;;;;;;;8.73;4.20;;;;;;;23.28;19.54;102044.13;5045237;28;20036;-68
2022/04/17 10:25:08;;;;;;;6.15;3.88;;;;;;;23.44;18.61;102048.00;5063535;28;20078;-71
2022/04/17 10:27:36;;;;;;;5.80;3.72;;;;;;;23.45;18.96;102041.81;5062465;28;20025;-74
2022/04/17 10:30:06;;;;;;;6.15;3.70;;;;;;;23.66;19.03;102034.81;5063173;28;20041;-73
2022/04/17 10:32:56;;;;;;;5.55;3.60;;;;;;;23.72;18.62;102037.22;5062735;28;20053;-68
2022/04/17 10:35:39;;;;;;;6.80;3.10;;;;;;;23.85;19.13;102028.81;5063123;28;20067;-72
2022/04/17 10:38:23;;;;;;;7.65;3.92;;;;;;;23.92;18.69;102032.94;5062752;28;20028;-75
2022/04/17 10:40:54;;;;;;;6.38;3.10;;;;;;;23.71;18.30;102016.94;5063112;28;20022;-74
2022/04/17 10:43:20;;;;;;;7.28;3.60;;;;;;;23.51;18.85;102020.38;5062883;28;20029;-72
2022/04/17 10:46:09;;;;;;;7.65;3.38;;;;;;;23.49;19.23;102017.78;5062957;28;20036;-74
2022/04/17 10:48:47;;;;;;;7.38;3.28;;;;;;;23.53;18.96;102015.88;5062800;28;20084;-70
2022/04/17 10:51:19;;;;;;;8.60;3.60;;;;;;;23.23;18.68;102008.97;5061708;28;20029;-67
2022/04/17 10:54:01;;;;;;;5.25;3.45;;;;;;;23.04;19.02;102000.81;5045049;28;20119;-66
2022/04/17 10:56:27;;;;;;;4.43;3.30;;;;;;;22.84;19.18;102005.06;5062946;28;20032;-75
2022/04/17 10:58:57;;;;;;;7.07;3.22;;;;;;;22.47;19.67;102012.44;5062827;28;20174;-72
2022/04/17 11:01:44;;;;;;;4.70;3.47;;;;;;;22.08;19.76;102012.81;5063094;28;20048;-73
2022/04/17 11:04:28;;;;;;;5.22;2.58;;;;;;;22.27;19.97;102005.13;5044885;28;20018;-69
2022/04/17 11:07:06;;;;;;;6.25;3.05;;;;;;;22.21;19.46;102014.16;5062789;28;20596;-70
2022/04/17 11:09:40;;;;;;;5.35;3.20;;;;;;;22.15;18.69;102004.66;5044523;28;20443;-74
2022/04/17 11:12:08;;;;;;;5.55;3.83;;;;;;;21.92;18.84;102002.72;5062964;28;20027;-68
2022/04/17 11:14:33;;;;;;;6.72;3.55;;;;;;;21.98;19.03;102002.50;5062448;28;20025;-65
2022/04/17 11:17:03;;;;;;;7.60;3.70;;;;;;;22.00;18.61;102000.69;5062731;28;20027;-71
2022/04/17 11:19:31;;;;;;;5.32;3.47;;;;;;;22.27;19.12;101995.44;5063032;28;20021;-72
2022/04/17 11:22:02;;;;;;;6.95;3.60;;;;;;;22.79;18.88;101993.75;5062798;28;20013;-68
2022/04/17 11:24:29;;;;;;;4.55;3.05;;;;;;;23.12;18.14;101998.78;5063245;28;20025;-68
2022/04/17 11:26:54;;;;;;;5.35;3.00;;;;;;;22.84;18.23;101999.75;5047338;28;20065;-69
2022/04/17 11:29:39;;;;;;;6.63;3.80;;;;;;;22.40;17.84;101995.03;5067326;28;20028;-68
2022/04/17 11:32:17;;;;;;;5.43;2.92;;;;;;;22.26;17.70;101999.00;5067076;28;20403;-68
2022/04/17 11:34:43;;;;;;;6.00;3.42;;;;;;;21.84;17.85;101988.88;5071408;28;20025;-69
2022/04/17 11:37:09;;;;;;;5.47;3.22;;;;;;;20.23;18.29;101996.66;5067628;28;20025;-70
2022/04/17 11:39:38;;;;;;;4.85;2.83;;;;;;;18.57;19.95;101996.38;5066518;28;20045;-69
2022/04/17 11:42:09;;;;;;;7.65;3.08;;;;;;;17.37;21.05;101987.50;5066467;28;20342;-69
2022/04/17 11:44:35;;;;;;;4.95;2.85;;;;;;;16.37;21.66;101991.03;5066262;28;20024;-69
2022/04/17 11:47:00;;;;;;;4.45;2.45;;;;;;;15.43;22.24;101983.66;5065784;28;20064;-72
2022/04/17 11:49:26;;;;;;;4.63;2.47;;;;;;;14.86;23.09;101986.38;5065339;28;20091;-70